createdAt,value
2019-05-07T11:41:22.902Z,75072.00
2019-05-07T11:42:22.119Z,75680.00
2019-05-07T11:43:22.281Z,73984.00
2019-05-07T11:44:23.014Z,73376.00
2019-05-07T11:45:22.744Z,73248.00
2019-05-07T11:46:22.260Z,71360.00
2019-05-07T11:47:22.518Z,70272.00
2019-05-07T11:48:22.159Z,69728.00
2019-05-07T11:49:22.715Z,70784.00
2019-05-07T11:50:22.592Z,67232.00
2019-05-07T11:51:23.128Z,24768.00
2019-05-07T11:52:22.838Z,72704.00
2019-05-07T11:53:22.104Z,73376.00
2019-05-07T11:54:21.904Z,39776.00
2019-05-07T11:55:22.412Z,11380.00
2019-05-07T11:56:22.028Z,10328.00
2019-05-07T11:57:22.192Z,9428.00
2019-05-07T11:58:22.088Z,9220.00
2019-05-07T11:59:22.077Z,9504.00
2019-05-07T12:00:21.959Z,9644.00
2019-05-07T12:01:22.438Z,10160.00
2019-05-07T12:02:22.683Z,11060.00
2019-05-07T12:03:22.155Z,11568.00
2019-05-07T12:04:21.797Z,11284.00
2019-05-07T12:05:22.718Z,11268.00
2019-05-07T12:06:21.782Z,11228.00
2019-05-07T12:07:22.322Z,11504.00
2019-05-07T12:08:22.428Z,27328.00
2019-05-07T12:09:22.760Z,68928.00
2019-05-07T12:10:22.250Z,68160.00
2019-05-07T12:11:21.915Z,66208.00
2019-05-07T12:12:22.261Z,62912.00
2019-05-07T12:13:21.933Z,61152.00
2019-05-07T12:14:30.860Z,62688.00
2019-05-07T12:15:46.150Z,8468.00
2019-05-07T12:16:46.142Z,8032.00
2019-05-07T12:17:46.132Z,8308.00
2019-05-07T12:18:46.120Z,8712.00
2019-05-07T12:19:46.108Z,8964.00
2019-05-07T12:20:46.103Z,8624.00
2019-05-07T12:21:46.086Z,9032.00
2019-05-07T12:22:46.074Z,8352.00
2019-05-07T12:23:46.068Z,8420.00
2019-05-07T12:24:46.051Z,15204.00
2019-05-07T12:25:46.044Z,33632.00
2019-05-07T12:26:46.039Z,37216.00
2019-05-07T12:27:46.019Z,37888.00
2019-05-07T12:28:46.009Z,39936.00
2019-05-07T12:29:45.997Z,40640.00
2019-05-07T12:30:45.989Z,38944.00
2019-05-07T12:31:45.974Z,37984.00
2019-05-07T12:32:45.965Z,35584.00
2019-05-07T12:33:45.954Z,34016.00
2019-05-07T12:34:45.947Z,30272.00
2019-05-07T12:35:45.931Z,30560.00
2019-05-07T12:36:45.920Z,29568.00
2019-05-07T12:37:49.313Z,27488.00
2019-05-07T12:38:45.899Z,27616.00
2019-05-07T12:39:45.889Z,14988.00
2019-05-07T12:40:45.876Z,8752.00
2019-05-07T12:41:45.867Z,8120.00
2019-05-07T12:42:45.858Z,7784.00
2019-05-07T12:43:45.842Z,8660.00
2019-05-07T12:44:45.832Z,9292.00
2019-05-07T12:45:45.825Z,9556.00
2019-05-07T12:46:45.811Z,9588.00
2019-05-07T12:47:45.801Z,9560.00
2019-05-07T12:48:45.789Z,13124.00
2019-05-07T12:49:45.779Z,12540.00
2019-05-07T12:50:45.773Z,12680.00
2019-05-07T12:51:45.761Z,10316.00
2019-05-07T12:52:45.747Z,10044.00
2019-05-07T12:53:45.737Z,9736.00
2019-05-07T12:54:45.725Z,9960.00
2019-05-07T12:55:45.718Z,9744.00
2019-05-07T12:56:45.710Z,8808.00
2019-05-07T12:57:45.691Z,8684.00
2019-05-07T12:58:45.684Z,8172.00
2019-05-07T12:59:45.673Z,7756.00
2019-05-07T13:00:45.666Z,7656.00
2019-05-07T13:01:45.651Z,6888.00
2019-05-07T13:02:45.637Z,6848.00
2019-05-07T13:03:45.626Z,6832.00
2019-05-07T13:04:45.614Z,6868.00
2019-05-07T13:05:45.605Z,6672.00
2019-05-07T13:06:45.595Z,6468.00
2019-05-07T13:07:45.584Z,6688.00
2019-05-07T13:08:45.573Z,7440.00
2019-05-07T13:09:45.561Z,7736.00
2019-05-07T13:10:45.549Z,7732.00
2019-05-07T13:11:45.538Z,7440.00
2019-05-07T13:12:45.533Z,7100.00
2019-05-07T13:13:45.521Z,6600.00
2019-05-07T13:14:45.502Z,5848.00
2019-05-07T13:15:45.493Z,5292.00
2019-05-07T13:16:45.481Z,5204.00
2019-05-07T13:17:45.471Z,5248.00
2019-05-07T13:18:45.459Z,5080.00
2019-05-07T13:19:45.448Z,4868.00
2019-05-07T13:20:45.436Z,5028.00
2019-05-07T13:21:49.283Z,5580.00
2019-05-07T13:22:45.413Z,6088.00
2019-05-07T13:23:45.411Z,6056.00
2019-05-07T13:24:45.394Z,5608.00
2019-05-07T13:25:45.382Z,5772.00
2019-05-07T13:26:45.371Z,6040.00
2019-05-07T13:27:45.363Z,6060.00
2019-05-07T13:28:45.349Z,6192.00
2019-05-07T13:29:45.341Z,6312.00
2019-05-07T13:30:45.328Z,6552.00
2019-05-07T13:31:45.314Z,6696.00
2019-05-07T13:32:48.112Z,6880.00
2019-05-07T13:33:45.307Z,6724.00
2019-05-07T13:34:45.284Z,6520.00
2019-05-07T13:35:45.276Z,6620.00
2019-05-07T13:36:45.259Z,6776.00
2019-05-07T13:37:46.455Z,6944.00
2019-05-07T13:38:45.242Z,6832.00
2019-05-07T13:39:45.235Z,6548.00
2019-05-07T13:40:45.219Z,6548.00
2019-05-07T13:41:45.219Z,6412.00
2019-05-07T13:42:45.238Z,6052.00
2019-05-07T13:43:45.228Z,5864.00
2019-05-07T13:44:45.177Z,5608.00
2019-05-07T13:45:45.178Z,5352.00
2019-05-07T13:46:45.176Z,5124.00
2019-05-07T13:47:45.179Z,4932.00
2019-05-07T13:48:47.042Z,4832.00
2019-05-07T13:49:45.115Z,4692.00
2019-05-07T13:50:45.112Z,4540.00
2019-05-07T13:51:45.093Z,4416.00
2019-05-07T13:52:45.082Z,4316.00
2019-05-07T13:53:45.073Z,4164.00
2019-05-07T13:54:45.060Z,3964.00
2019-05-07T13:55:45.058Z,3912.00
2019-05-07T13:56:45.041Z,3680.00
2019-05-07T13:57:45.032Z,3588.00
2019-05-07T13:58:45.016Z,3512.00
2019-05-07T13:59:45.008Z,3520.00
2019-05-07T14:00:44.997Z,3648.00
2019-05-07T14:01:44.992Z,3860.00
2019-05-07T14:02:44.988Z,4216.00
2019-05-07T14:03:44.966Z,4500.00
2019-05-07T14:04:44.955Z,4884.00
2019-05-07T14:05:44.940Z,5156.00
2019-05-07T14:06:44.932Z,5284.00
2019-05-07T14:07:44.928Z,5224.00
2019-05-07T14:08:44.916Z,5152.00
2019-05-07T14:09:44.899Z,5224.00
2019-05-07T14:10:44.886Z,5464.00
2019-05-07T14:11:44.877Z,5888.00
2019-05-07T14:12:44.871Z,6244.00
2019-05-07T14:13:44.858Z,6492.00
2019-05-07T14:14:44.846Z,6624.00
2019-05-07T14:15:44.834Z,6500.00
2019-05-07T14:16:45.198Z,6248.00
2019-05-07T14:17:44.826Z,5856.00
2019-05-07T14:18:44.800Z,5660.00
2019-05-07T14:19:44.795Z,5784.00
2019-05-07T14:20:44.780Z,6144.00
2019-05-07T14:21:44.772Z,6312.00
2019-05-07T14:22:44.760Z,6508.00
2019-05-07T14:23:44.747Z,6800.00
2019-05-07T14:24:44.734Z,6984.00
2019-05-07T14:25:44.724Z,7064.00
2019-05-07T14:26:44.711Z,7144.00
2019-05-07T14:27:44.703Z,6932.00
2019-05-07T14:28:44.689Z,6580.00
2019-05-07T14:29:44.691Z,6472.00
2019-05-07T14:30:44.670Z,6332.00
2019-05-07T14:31:44.661Z,6052.00
2019-05-07T14:32:44.646Z,5788.00
2019-05-07T14:33:44.634Z,5684.00
2019-05-07T14:34:44.627Z,5528.00
2019-05-07T14:35:44.612Z,5492.00
2019-05-07T14:36:44.603Z,5600.00
2019-05-07T14:37:44.595Z,5364.00
2019-05-07T14:38:44.578Z,5140.00
2019-05-07T14:39:44.572Z,4908.00
2019-05-07T14:40:44.557Z,4860.00
2019-05-07T14:41:44.547Z,5004.00
2019-05-07T14:42:44.541Z,4904.00
2019-05-07T14:43:44.526Z,4696.00
2019-05-07T14:44:44.517Z,4476.00
2019-05-07T14:46:50.840Z,4048.00
2019-05-07T14:48:08.958Z,3868.00
2019-05-07T14:49:08.949Z,3764.00
2019-05-07T14:50:08.991Z,3684.00
2019-05-07T14:51:08.930Z,3668.00
2019-05-07T14:52:08.915Z,3684.00
2019-05-07T14:53:08.912Z,3696.00
2019-05-07T14:54:08.915Z,3676.00
2019-05-07T14:55:08.880Z,3756.00
2019-05-07T14:56:08.869Z,3800.00
2019-05-07T14:57:08.867Z,3816.00
2019-05-07T14:58:08.849Z,3884.00
2019-05-07T14:59:08.845Z,4156.00
2019-05-07T15:00:08.825Z,4504.00
2019-05-07T15:01:08.815Z,4796.00
2019-05-07T15:02:08.805Z,5088.00
2019-05-07T15:03:08.794Z,5332.00
2019-05-07T15:05:08.774Z,5700.00
2019-05-07T15:06:08.760Z,5800.00
2019-05-07T15:07:08.748Z,5780.00
2019-05-07T15:08:11.735Z,5836.00
2019-05-07T15:09:08.726Z,5852.00
2019-05-07T15:10:08.715Z,5852.00
2019-05-07T15:11:08.709Z,5836.00
2019-05-07T15:12:11.419Z,5856.00
2019-05-07T15:13:08.684Z,5964.00
2019-05-07T15:14:08.671Z,6156.00
2019-05-07T15:15:08.667Z,6148.00
2019-05-07T15:16:08.650Z,6004.00
2019-05-07T15:17:08.639Z,5764.00
2019-05-07T15:18:08.628Z,5648.00
2019-05-07T15:19:08.619Z,5616.00
2019-05-07T15:20:08.606Z,5612.00
2019-05-07T15:21:08.602Z,5524.00
2019-05-07T15:22:08.587Z,5380.00
2019-05-07T15:23:08.574Z,5380.00
2019-05-07T15:24:08.561Z,5472.00
2019-05-07T15:25:08.558Z,5516.00
2019-05-07T15:26:08.543Z,5572.00
2019-05-07T15:27:08.534Z,5676.00
2019-05-07T15:28:08.518Z,5804.00
2019-05-07T15:29:08.507Z,5928.00
2019-05-07T15:30:08.495Z,6028.00
2019-05-07T15:31:08.492Z,6108.00
2019-05-07T15:32:08.474Z,6192.00
2019-05-07T15:33:08.468Z,6288.00
2019-05-07T15:34:08.451Z,6316.00
2019-05-07T15:35:08.440Z,6252.00
2019-05-07T15:36:08.430Z,6084.00
2019-05-07T15:37:08.418Z,5848.00
2019-05-07T15:38:08.410Z,5472.00
2019-05-07T15:39:08.395Z,5168.00
2019-05-07T15:40:08.384Z,4724.00
2019-05-07T15:41:08.373Z,4256.00
2019-05-07T15:42:08.360Z,3888.00
2019-05-07T15:43:08.358Z,3596.00
2019-05-07T15:44:08.347Z,3428.00
2019-05-07T15:45:08.384Z,3364.00
2019-05-07T15:46:08.344Z,3356.00
2019-05-07T15:48:08.292Z,3680.00
2019-05-07T15:49:08.281Z,3888.00
2019-05-07T15:50:08.281Z,3840.00
2019-05-07T15:51:08.258Z,3804.00
2019-05-07T15:52:08.248Z,3988.00
2019-05-07T15:53:08.244Z,4252.00
2019-05-07T15:54:08.225Z,4368.00
2019-05-07T15:55:08.215Z,4368.00
2019-05-07T15:56:08.205Z,4260.00
2019-05-07T15:57:08.195Z,4160.00
2019-05-07T15:58:08.182Z,4104.00
2019-05-07T15:59:08.169Z,4080.00
2019-05-07T16:01:08.162Z,4096.00
2019-05-07T16:03:08.148Z,4208.00
2019-05-07T16:04:19.090Z,4216.00
2019-05-07T16:05:32.585Z,4136.00
2019-05-07T16:06:32.567Z,4012.00
2019-05-07T16:07:32.836Z,3752.00
2019-05-07T16:08:32.547Z,3588.00
2019-05-07T16:09:32.718Z,3548.00
2019-05-07T16:10:32.528Z,3532.00
2019-05-07T16:11:32.643Z,3536.00
2019-05-07T16:12:32.502Z,3476.00
2019-05-07T16:13:32.785Z,3344.00
2019-05-07T16:14:32.487Z,3212.00
2019-05-07T16:15:32.469Z,3120.00
2019-05-07T16:16:33.338Z,3048.00
2019-05-07T16:17:32.841Z,3036.00
2019-05-07T16:18:32.757Z,3060.00
2019-05-07T16:19:32.420Z,3048.00
2019-05-07T16:20:32.708Z,3040.00
2019-05-07T16:21:32.673Z,3040.00
2019-05-07T16:22:32.799Z,2984.00
2019-05-07T16:23:32.697Z,2892.00
2019-05-07T16:24:32.365Z,2900.00
2019-05-07T16:25:32.812Z,2968.00
2019-05-07T16:26:32.766Z,3108.00
2019-05-07T16:27:32.330Z,3264.00
2019-05-07T16:28:32.506Z,3280.00
2019-05-07T16:29:35.606Z,3188.00
2019-05-07T16:30:32.536Z,3124.00
2019-05-07T16:31:33.220Z,3116.00
2019-05-07T16:32:32.850Z,3088.00
2019-05-07T16:33:34.732Z,3072.00
2019-05-07T16:34:32.676Z,3084.00
2019-05-07T16:35:32.301Z,3092.00
2019-05-07T16:36:32.932Z,3060.00
2019-05-07T16:37:32.348Z,2968.00
2019-05-07T16:38:32.798Z,2868.00
2019-05-07T16:39:32.684Z,2816.00
2019-05-07T16:40:32.467Z,2784.00
2019-05-07T16:41:32.175Z,2716.00
2019-05-07T16:42:32.296Z,2624.00
2019-05-07T16:43:32.160Z,2524.00
2019-05-07T16:44:33.110Z,2448.00
2019-05-07T16:45:32.136Z,2420.00
2019-05-07T16:46:32.126Z,2416.00
2019-05-07T16:47:32.116Z,2424.00
2019-05-07T16:48:32.700Z,2420.00
2019-05-07T16:49:32.088Z,2404.00
2019-05-07T16:50:32.738Z,2364.00
2019-05-07T16:51:33.052Z,2348.00
2019-05-07T16:52:34.913Z,2352.00
2019-05-07T16:53:35.047Z,2336.00
2019-05-07T16:54:32.033Z,2328.00
2019-05-07T16:55:32.768Z,2300.00
2019-05-07T16:56:33.322Z,2272.00
2019-05-07T16:57:33.687Z,2292.00
2019-05-07T16:58:34.869Z,2372.00
2019-05-07T16:59:32.525Z,2452.00
2019-05-07T17:00:31.999Z,2504.00
2019-05-07T17:01:32.532Z,2492.00
2019-05-07T17:02:33.880Z,2436.00
2019-05-07T17:03:32.006Z,2368.00
2019-05-07T17:04:32.068Z,2296.00
2019-05-07T17:05:32.172Z,2224.00
2019-05-07T17:06:32.253Z,2132.00
2019-05-07T17:07:32.197Z,2052.00
2019-05-07T17:08:32.083Z,2008.00
2019-05-07T17:09:32.308Z,1980.00
2019-05-07T17:10:31.994Z,1984.00
2019-05-07T17:11:32.197Z,2000.00
2019-05-07T17:13:32.026Z,1908.00
2019-05-07T17:14:31.817Z,1832.00
2019-05-07T17:15:31.797Z,1756.00
2019-05-07T17:16:31.922Z,1704.00
2019-05-07T17:17:32.234Z,1668.00
2019-05-07T17:18:32.574Z,1632.00
2019-05-07T17:19:32.049Z,1564.00
2019-05-07T17:20:32.785Z,1476.00
2019-05-07T17:21:32.494Z,1396.00
2019-05-07T17:22:32.265Z,1348.00
2019-05-07T17:23:43.669Z,1328.00
2019-05-07T17:24:33.064Z,1312.00
2019-05-07T17:25:33.383Z,1296.00
2019-05-07T17:26:31.672Z,1268.00
2019-05-07T17:27:32.110Z,1240.00
2019-05-07T17:28:32.051Z,1220.00
2019-05-07T17:30:32.073Z,1208.00
2019-05-07T17:31:31.912Z,1216.00
2019-05-07T17:32:32.122Z,1240.00
2019-05-07T17:33:32.096Z,1284.00
2019-05-07T17:34:31.589Z,1360.00
2019-05-07T17:35:34.181Z,1424.00
2019-05-07T17:36:33.041Z,1436.00
2019-05-07T17:37:31.554Z,1392.00
2019-05-07T17:38:32.213Z,1344.00
2019-05-07T17:39:32.152Z,1320.00
2019-05-07T17:40:32.129Z,1300.00
2019-05-07T17:41:32.211Z,1280.00
2019-05-07T17:42:32.869Z,1256.00
2019-05-07T17:43:32.473Z,1224.00
2019-05-07T17:44:32.321Z,1180.00
2019-05-07T17:45:32.832Z,1136.00
2019-05-07T17:46:32.381Z,1088.00
2019-05-07T17:47:32.217Z,1044.00
2019-05-07T17:48:32.620Z,992.00
2019-05-07T17:49:32.809Z,940.00
2019-05-07T17:50:32.295Z,896.00
2019-05-07T17:51:32.362Z,868.00
2019-05-07T17:52:32.378Z,840.00
2019-05-07T17:53:32.060Z,820.00
2019-05-07T17:54:31.829Z,804.00
2019-05-07T17:55:33.194Z,784.00
2019-05-07T17:56:32.041Z,768.00
2019-05-07T17:57:33.354Z,748.00
2019-05-07T17:58:32.599Z,728.00
2019-05-07T17:59:32.078Z,716.00
2019-05-07T18:00:32.830Z,704.00
2019-05-07T18:01:32.709Z,692.00
2019-05-07T18:02:32.686Z,676.00
2019-05-07T18:03:32.298Z,656.00
2019-05-07T18:04:33.785Z,632.00
2019-05-07T18:05:55.711Z,596.00
2019-05-07T18:06:55.707Z,580.00
2019-05-07T18:07:55.688Z,560.00
2019-05-07T18:08:55.676Z,548.00
2019-05-07T18:09:55.662Z,528.00
2019-05-07T18:10:55.653Z,508.00
2019-05-07T18:11:55.641Z,492.00
2019-05-07T18:12:55.635Z,480.00
2019-05-07T18:13:55.620Z,468.00
2019-05-07T18:14:55.608Z,456.00
2019-05-07T18:15:55.596Z,448.00
2019-05-07T18:16:55.580Z,432.00
2019-05-07T18:17:55.571Z,420.00
2019-05-07T18:18:55.564Z,408.00
2019-05-07T18:19:55.550Z,400.00
2019-05-07T18:20:55.535Z,400.00
2019-05-07T18:21:55.526Z,396.00
2019-05-07T18:22:55.520Z,384.00
2019-05-07T18:23:55.503Z,364.00
2019-05-07T18:24:55.493Z,344.00
2019-05-07T18:25:55.482Z,320.00
2019-05-07T18:26:55.465Z,300.00
2019-05-07T18:27:55.457Z,276.00
2019-05-07T18:28:55.442Z,256.00
2019-05-07T18:29:55.433Z,240.00
2019-05-07T18:30:55.423Z,220.00
2019-05-07T18:31:55.410Z,204.00
2019-05-07T18:32:55.397Z,188.00
2019-05-07T18:33:55.397Z,172.00
2019-05-07T18:34:55.381Z,156.00
2019-05-07T18:35:55.363Z,144.00
2019-05-07T18:36:55.352Z,128.00
2019-05-07T18:37:55.346Z,116.00
2019-05-07T18:38:55.342Z,108.00
2019-05-07T18:39:55.327Z,96.00
2019-05-07T18:40:55.310Z,96.00
2019-05-07T18:41:55.299Z,88.00
2019-05-07T18:42:55.287Z,80.00
2019-05-07T18:44:08.114Z,76.00
2019-05-07T18:44:56.285Z,68.00
2019-05-07T18:45:55.249Z,60.00
2019-05-07T18:46:55.240Z,56.00
2019-05-07T18:47:55.234Z,52.00
2019-05-07T18:48:55.218Z,48.00
2019-05-07T18:51:55.192Z,32.00
2019-05-07T18:52:55.175Z,28.00
2019-05-07T18:53:55.161Z,28.00
2019-05-07T18:54:55.154Z,24.00
2019-05-07T18:55:55.148Z,20.00
2019-05-07T18:56:55.134Z,16.00
2019-05-07T18:57:55.117Z,16.00
2019-05-07T18:59:55.093Z,12.00
2019-05-07T19:00:55.079Z,12.00
2019-05-07T19:01:55.074Z,8.00
2019-05-07T19:02:55.059Z,8.00
2019-05-07T19:03:55.049Z,8.00
2019-05-07T19:06:55.017Z,8.00
2019-05-07T19:08:04.621Z,4.00
2019-05-07T19:09:19.469Z,4.00
2019-05-07T19:10:19.458Z,4.00
2019-05-07T19:11:19.444Z,4.00
2019-05-07T19:13:19.425Z,4.00
2019-05-07T19:14:19.414Z,4.00
2019-05-07T19:15:19.408Z,4.00
2019-05-07T19:17:21.746Z,4.00
2019-05-07T19:18:19.371Z,4.00
2019-05-07T19:19:19.356Z,4.00
2019-05-07T19:20:21.665Z,4.00
2019-05-07T19:21:19.336Z,4.00
2019-05-07T22:07:41.918Z,0.00
